Time;durP1;ratioP1;P1;durP2;ratioP2;P2;SDS_P1;SDS_P2;PMS_P1;PMS_P2;Temp;Humidity;BMP_temperature;BMP_pressure;BME280_temperature;BME280_humidity;BME280_pressure;Samples;Min_cycle;Max_cycle;Signal;HPM_P1;HPM_P2
2023/07/06 00:00:47;;;;;;;;;;;;;;;;;;5040406;28;19965;-88
2023/07/06 00:03:14;;;;;;;;;;;;;;;;;;5056893;28;19921;-88
2023/07/06 00:05:42;;;;;;;;;;;;;;;;;;5058186;28;19932;-89
2023/07/06 00:08:09;;;;;;;;;;;;;;;;;;5040385;28;19925;-88
2023/07/06 00:10:35;;;;;;;;;;;;;;;;;;5040145;28;20014;-88
2023/07/06 00:13:01;;;;;;;;;;;;;;;;;;5057178;28;20031;-88
2023/07/06 00:15:28;;;;;;;;;;;;;;;;;;5056793;28;20038;-88
2023/07/06 00:17:55;;;;;;;;;;;;;;;;;;5040008;28;19921;-88
2023/07/06 00:20:21;;;;;;;;;;;;;;;;;;5039554;28;19932;-88
2023/07/06 00:22:47;;;;;;;;;;;;;;;;;;5036315;28;19921;-89
2023/07/06 00:25:12;;;;;;;;;;;;;;;;;;5037152;28;20311;-88
2023/07/06 00:27:40;;;;;;;;;;;;;;;;;;5053877;28;20427;-88
2023/07/06 00:30:15;;;;;;;;;;;;;;;;;;5036979;28;19934;-88
2023/07/06 00:32:41;;;;;;;;;;;;;;;;;;5053524;28;19920;-88
2023/07/06 00:35:10;;;;;;;;;;;;;;;;;;5053386;28;19921;-88
2023/07/06 00:37:37;;;;;;;;;;;;;;;;;;5053220;28;20427;-88
2023/07/06 00:40:08;;;;;;;;;;;;;;;;;;5053668;28;20326;-89
2023/07/06 00:42:33;;;;;;;;;;;;;;;;;;5054762;28;19921;-89
2023/07/06 00:44:59;;;;;;;;;;;;;;;;;;5036608;28;20063;-89
2023/07/06 00:47:25;;;;;;;;;;;;;;;;;;5054472;28;19925;-89
2023/07/06 00:49:51;;;;;;;;;;;;;;;;;;5053069;28;19927;-88
2023/07/06 00:52:17;;;;;;;;;;;;;;;;;;5054204;28;19928;-88
2023/07/06 00:54:43;;;;;;;;;;;;;;;;;;5054322;28;20327;-88
2023/07/06 00:57:09;;;;;;;;;;;;;;;;;;5036577;28;19978;-88
2023/07/06 00:59:35;;;;;;;;;;;;;;;;;;5053335;28;20015;-88
2023/07/06 01:02:01;;;;;;;;;;;;;;;;;;5036230;28;19927;-88
2023/07/06 01:04:26;;;;;;;;;;;;;;;;;;5052684;28;19943;-88
2023/07/06 01:06:52;;;;;;;;;;;;;;;;;;5052466;28;20377;-88
2023/07/06 01:09:18;;;;;;;;;;;;;;;;;;5052851;28;20020;-89
2023/07/06 01:11:44;;;;;;;;;;;;;;;;;;5036259;28;19974;-89
2023/07/06 01:14:12;;;;;;;;;;;;;;;;;;5052800;28;20071;-89
2023/07/06 01:16:38;;;;;;;;;;;;;;;;;;5052419;28;19920;-89
2023/07/06 01:19:04;;;;;;;;;;;;;;;;;;5052548;28;20380;-88
2023/07/06 01:21:31;;;;;;;;;;;;;;;;;;5052249;28;19927;-87
2023/07/06 01:23:57;;;;;;;;;;;;;;;;;;5052678;28;19962;-89
2023/07/06 01:26:22;;;;;;;;;;;;;;;;;;5052491;28;19993;-89
2023/07/06 01:28:50;;;;;;;;;;;;;;;;;;5053604;28;19982;-90
2023/07/06 01:31:16;;;;;;;;;;;;;;;;;;5052571;28;19955;-90
2023/07/06 01:33:42;;;;;;;;;;;;;;;;;;5052316;28;19921;-88
2023/07/06 01:36:08;;;;;;;;;;;;;;;;;;5053473;28;20388;-88
2023/07/06 01:38:34;;;;;;;;;;;;;;;;;;5052200;28;19963;-88
2023/07/06 01:41:01;;;;;;;;;;;;;;;;;;5035605;28;19986;-88
2023/07/06 01:43:27;;;;;;;;;;;;;;;;;;5052057;28;19921;-89
2023/07/06 01:45:53;;;;;;;;;;;;;;;;;;5051937;28;20344;-89
2023/07/06 01:48:20;;;;;;;;;;;;;;;;;;5052050;28;20011;-88
2023/07/06 01:50:48;;;;;;;;;;;;;;;;;;5052386;28;20023;-89
2023/07/06 01:53:14;;;;;;;;;;;;;;;;;;5035355;28;20000;-89
2023/07/06 01:55:41;;;;;;;;;;;;;;;;;;5052102;28;19925;-89
2023/07/06 01:58:07;;;;;;;;;;;;;;;;;;5053105;28;20292;-89
2023/07/06 02:00:32;;;;;;;;;;;;;;;;;;5035122;28;19931;-89
2023/07/06 02:02:58;;;;;;;;;;;;;;;;;;5051975;28;19951;-89
2023/07/06 02:05:24;;;;;;;;;;;;;;;;;;5051729;28;19928;-90
2023/07/06 02:07:50;;;;;;;;;;;;;;;;;;5035127;28;19962;-89
2023/07/06 02:10:16;;;;;;;;;;;;;;;;;;5051849;28;20028;-88
2023/07/06 02:12:47;;;;;;;;;;;;;;;;;;5051535;28;19931;-89
2023/07/06 02:15:13;;;;;;;;;;;;;;;;;;5034818;28;19920;-89
2023/07/06 02:17:39;;;;;;;;;;;;;;;;;;5052579;28;19921;-89
2023/07/06 02:20:08;;;;;;;;;;;;;;;;;;5051783;28;19921;-89
2023/07/06 02:22:34;;;;;;;;;;;;;;;;;;5052846;28;20015;-89
2023/07/06 02:25:01;;;;;;;;;;;;;;;;;;5052671;28;20063;-89
2023/07/06 02:27:27;;;;;;;;;;;;;;;;;;5052668;28;19960;-88
2023/07/06 02:29:52;;;;;;;;;;;;;;;;;;5034681;28;20380;-89
2023/07/06 02:32:18;;;;;;;;;;;;;;;;;;5052473;28;19920;-89
2023/07/06 02:34:45;;;;;;;;;;;;;;;;;;5051397;28;20070;-89
2023/07/06 02:37:11;;;;;;;;;;;;;;;;;;5051328;28;19981;-89
2023/07/06 02:39:37;;;;;;;;;;;;;;;;;;5051563;28;20352;-89
2023/07/06 02:42:04;;;;;;;;;;;;;;;;;;5034516;28;19921;-89
2023/07/06 02:44:30;;;;;;;;;;;;;;;;;;5033802;28;19943;-88
2023/07/06 02:46:56;;;;;;;;;;;;;;;;;;5034287;28;19924;-89
2023/07/06 02:49:22;;;;;;;;;;;;;;;;;;5034653;28;19921;-89
2023/07/06 02:51:48;;;;;;;;;;;;;;;;;;5051331;28;19974;-88
2023/07/06 02:54:15;;;;;;;;;;;;;;;;;;5051294;28;20299;-89
2023/07/06 02:56:41;;;;;;;;;;;;;;;;;;5050784;28;20012;-90
2023/07/06 02:59:08;;;;;;;;;;;;;;;;;;5051292;28;20334;-87
2023/07/06 03:01:34;;;;;;;;;;;;;;;;;;5051050;28;19928;-88
2023/07/06 03:04:00;;;;;;;;;;;;;;;;;;5050914;28;20284;-88
2023/07/06 03:06:27;;;;;;;;;;;;;;;;;;5034010;28;19936;-89
2023/07/06 03:08:54;;;;;;;;;;;;;;;;;;5050945;28;19920;-89
2023/07/06 03:11:20;;;;;;;;;;;;;;;;;;5034271;28;19921;-86
2023/07/06 03:13:46;;;;;;;;;;;;;;;;;;5050720;28;19925;-89
2023/07/06 03:16:12;;;;;;;;;;;;;;;;;;5050649;28;20276;-89
2023/07/06 03:18:39;;;;;;;;;;;;;;;;;;5050548;28;19925;-89
2023/07/06 03:21:05;;;;;;;;;;;;;;;;;;5050618;28;20035;-88
2023/07/06 03:23:31;;;;;;;;;;;;;;;;;;5052087;28;19952;-88
2023/07/06 03:25:58;;;;;;;;;;;;;;;;;;5050442;28;20287;-88
2023/07/06 03:28:23;;;;;;;;;;;;;;;;;;5051774;28;19925;-88
2023/07/06 03:30:49;;;;;;;;;;;;;;;;;;5050997;28;19951;-88
2023/07/06 03:33:15;;;;;;;;;;;;;;;;;;5050770;28;20373;-89
2023/07/06 03:35:41;;;;;;;;;;;;;;;;;;5052065;28;19959;-88
2023/07/06 03:38:07;;;;;;;;;;;;;;;;;;5050682;28;19921;-89
2023/07/06 03:40:33;;;;;;;;;;;;;;;;;;5050460;28;19921;-88
2023/07/06 03:43:01;;;;;;;;;;;;;;;;;;5050339;28;19920;-89
2023/07/06 03:45:30;;;;;;;;;;;;;;;;;;5033766;28;19925;-89
2023/07/06 03:47:55;;;;;;;;;;;;;;;;;;5033771;28;20078;-90
2023/07/06 03:50:21;;;;;;;;;;;;;;;;;;5052047;28;19943;-89
2023/07/06 03:52:47;;;;;;;;;;;;;;;;;;5033708;28;19972;-89
2023/07/06 03:55:14;;;;;;;;;;;;;;;;;;5051482;28;20299;-89
2023/07/06 03:57:40;;;;;;;;;;;;;;;;;;5053050;28;19928;-89
2023/07/06 04:00:13;;;;;;;;;;;;;;;;;;5055603;28;20365;-89
2023/07/06 04:02:39;;;;;;;;;;;;;;;;;;5037640;28;19928;-90
2023/07/06 04:05:05;;;;;;;;;;;;;;;;;;5054218;28;19925;-90
2023/07/06 04:07:30;;;;;;;;;;;;;;;;;;5053775;28;19975;-90
2023/07/06 04:09:56;;;;;;;;;;;;;;;;;;5054011;28;19921;-91
2023/07/06 04:12:22;;;;;;;;;;;;;;;;;;5053949;28;19924;-90
2023/07/06 04:14:49;;;;;;;;;;;;;;;;;;5054213;28;20357;-90
2023/07/06 04:17:16;;;;;;;;;;;;;;;;;;5053929;28;20116;-88
2023/07/06 04:19:42;;;;;;;;;;;;;;;;;;5053705;28;19928;-88
2023/07/06 04:22:08;;;;;;;;;;;;;;;;;;5053599;28;19921;-89
2023/07/06 04:24:34;;;;;;;;;;;;;;;;;;5054732;28;19921;-88
2023/07/06 04:27:00;;;;;;;;;;;;;;;;;;5054815;28;19920;-89
2023/07/06 04:29:28;;;;;;;;;;;;;;;;;;5055240;28;19999;-89
2023/07/06 04:31:55;;;;;;;;;;;;;;;;;;5036856;28;20321;-89
2023/07/06 04:34:21;;;;;;;;;;;;;;;;;;5036904;28;19927;-89
2023/07/06 04:36:47;;;;;;;;;;;;;;;;;;5053296;28;20000;-88
2023/07/06 04:39:13;;;;;;;;;;;;;;;;;;5036744;28;19983;-88
2023/07/06 04:41:39;;;;;;;;;;;;;;;;;;5053776;28;20031;-88
2023/07/06 04:44:06;;;;;;;;;;;;;;;;;;5053740;28;20000;-89
2023/07/06 04:46:32;;;;;;;;;;;;;;;;;;5036644;28;19929;-88
2023/07/06 04:48:58;;;;;;;;;;;;;;;;;;5053536;28;19921;-89
2023/07/06 04:51:25;;;;;;;;;;;;;;;;;;5049857;28;19975;-89
2023/07/06 04:53:51;;;;;;;;;;;;;;;;;;5041274;28;19964;-88
2023/07/06 04:56:17;;;;;;;;;;;;;;;;;;5042873;28;20284;-89
2023/07/06 04:58:45;;;;;;;;;;;;;;;;;;5030701;28;20483;-89
2023/07/06 05:01:11;;;;;;;;;;;;;;;;;;5054302;28;19921;-89
2023/07/06 05:03:36;;;;;;;;;;;;;;;;;;5053218;28;19921;-89
2023/07/06 05:06:03;;;;;;;;;;;;;;;;;;5053303;28;19925;-89
2023/07/06 05:08:29;;;;;;;;;;;;;;;;;;5036256;28;19920;-89
2023/07/06 05:10:55;;;;;;;;;;;;;;;;;;5037216;28;19929;-89
2023/07/06 05:13:22;;;;;;;;;;;;;;;;;;5053271;28;19920;-88
2023/07/06 05:15:48;;;;;;;;;;;;;;;;;;5053207;28;20254;-90
2023/07/06 05:18:14;;;;;;;;;;;;;;;;;;5036300;28;19920;-90
2023/07/06 05:20:40;;;;;;;;;;;;;;;;;;5051528;28;20077;-89
2023/07/06 05:23:08;;;;;;;;;;;;;;;;;;5035976;28;19920;-89
2023/07/06 05:25:34;;;;;;;;;;;;;;;;;;5051666;28;20388;-89
2023/07/06 05:28:00;;;;;;;;;;;;;;;;;;5035643;28;19924;-91
2023/07/06 05:30:25;;;;;;;;;;;;;;;;;;5054033;28;19986;-89
2023/07/06 05:32:51;;;;;;;;;;;;;;;;;;5051837;28;19920;-88
2023/07/06 05:35:17;;;;;;;;;;;;;;;;;;5051860;28;20391;-88
2023/07/06 05:37:43;;;;;;;;;;;;;;;;;;5051862;28;19924;-88
2023/07/06 05:40:09;;;;;;;;;;;;;;;;;;5051832;28;20396;-88
2023/07/06 05:42:35;;;;;;;;;;;;;;;;;;5034493;28;19995;-90
2023/07/06 05:45:01;;;;;;;;;;;;;;;;;;5033470;28;19925;-89
2023/07/06 05:47:27;;;;;;;;;;;;;;;;;;5048615;28;20261;-87
2023/07/06 05:49:53;;;;;;;;;;;;;;;;;;5032442;28;19921;-88
2023/07/06 05:52:19;;;;;;;;;;;;;;;;;;5033472;28;20000;-88
2023/07/06 05:54:45;;;;;;;;;;;;;;;;;;5031705;28;19925;-88
2023/07/06 05:57:11;;;;;;;;;;;;;;;;;;5032001;28;19921;-88
2023/07/06 05:59:41;;;;;;;;;;;;;;;;;;5048495;28;20082;-88
2023/07/06 06:02:07;;;;;;;;;;;;;;;;;;5031885;28;19921;-88
2023/07/06 06:04:33;;;;;;;;;;;;;;;;;;5031788;28;19921;-88
2023/07/06 06:06:59;;;;;;;;;;;;;;;;;;5032914;28;19925;-88
2023/07/06 06:09:25;;;;;;;;;;;;;;;;;;5032093;28;19921;-88
2023/07/06 06:11:51;;;;;;;;;;;;;;;;;;5033182;28;20035;-88
2023/07/06 06:14:17;;;;;;;;;;;;;;;;;;5031623;28;19994;-88
2023/07/06 06:16:43;;;;;;;;;;;;;;;;;;5031552;28;19921;-88
2023/07/06 06:19:08;;;;;;;;;;;;;;;;;;5030612;28;19925;-89
2023/07/06 06:21:35;;;;;;;;;;;;;;;;;;5031970;28;20295;-89
2023/07/06 06:24:01;;;;;;;;;;;;;;;;;;5033027;28;19921;-89
2023/07/06 06:26:27;;;;;;;;;;;;;;;;;;5032986;28;19933;-88
2023/07/06 06:28:53;;;;;;;;;;;;;;;;;;5031498;28;19944;-88
2023/07/06 06:31:19;;;;;;;;;;;;;;;;;;5031384;28;19928;-89
2023/07/06 06:33:45;;;;;;;;;;;;;;;;;;5048000;28;19921;-89
2023/07/06 06:36:11;;;;;;;;;;;;;;;;;;5031275;28;19948;-89
2023/07/06 06:38:37;;;;;;;;;;;;;;;;;;5031323;28;20319;-88
2023/07/06 06:41:03;;;;;;;;;;;;;;;;;;5040588;28;20325;-89
2023/07/06 06:43:29;;;;;;;;;;;;;;;;;;5032080;28;20011;-88
2023/07/06 06:45:55;;;;;;;;;;;;;;;;;;5050546;28;19935;-88
2023/07/06 06:48:21;;;;;;;;;;;;;;;;;;5051141;28;19921;-88
2023/07/06 06:50:47;;;;;;;;;;;;;;;;;;5034178;28;19920;-88
2023/07/06 06:53:13;;;;;;;;;;;;;;;;;;5051256;28;20095;-90
2023/07/06 06:55:39;;;;;;;;;;;;;;;;;;5034146;28;19925;-89
2023/07/06 06:58:05;;;;;;;;;;;;;;;;;;5034536;28;19921;-88
2023/07/06 07:00:31;;;;;;;;;;;;;;;;;;5043954;28;19978;-89
2023/07/06 07:02:57;;;;;;;;;;;;;;;;;;5040214;28;20012;-89
2023/07/06 07:05:23;;;;;;;;;;;;;;;;;;5024240;28;19936;-89
2023/07/06 07:07:49;;;;;;;;;;;;;;;;;;5040508;28;19921;-89
2023/07/06 07:10:15;;;;;;;;;;;;;;;;;;5032333;28;19925;-89
2023/07/06 07:12:41;;;;;;;;;;;;;;;;;;5032420;28;19927;-89
2023/07/06 07:15:07;;;;;;;;;;;;;;;;;;5014438;28;19921;-92
2023/07/06 07:17:33;;;;;;;;;;;;;;;;;;5014625;28;20329;-91
2023/07/06 07:19:59;;;;;;;;;;;;;;;;;;5031995;28;19941;-89
2023/07/06 07:22:27;;;;;;;;;;;;;;;;;;5032233;28;19925;-89
2023/07/06 07:24:53;;;;;;;;;;;;;;;;;;5030711;28;19967;-90
2023/07/06 07:27:19;;;;;;;;;;;;;;;;;;5013997;28;19921;-88
2023/07/06 07:29:46;;;;;;;;;;;;;;;;;;5030712;28;20400;-88
2023/07/06 07:32:12;;;;;;;;;;;;;;;;;;5033338;28;19921;-90
2023/07/06 07:34:38;;;;;;;;;;;;;;;;;;5054490;28;20015;-89
2023/07/06 07:37:05;;;;;;;;;;;;;;;;;;5054777;28;19920;-89
2023/07/06 07:39:31;;;;;;;;;;;;;;;;;;5037927;28;19932;-91
2023/07/06 07:41:58;;;;;;;;;;;;;;;;;;5054581;28;19921;-91
2023/07/06 07:44:28;;;;;;;;;;;;;;;;;;5055847;28;19932;-92
2023/07/06 07:46:53;;;;;;;;;;;;;;;;;;5054223;28;19946;-88
2023/07/06 07:49:19;;;;;;;;;;;;;;;;;;5054278;28;19924;-88
2023/07/06 07:51:46;;;;;;;;;;;;;;;;;;5055566;28;19925;-85
2023/07/06 07:54:12;;;;;;;;;;;;;;;;;;5054152;28;19925;-88
2023/07/06 07:56:38;;;;;;;;;;;;;;;;;;5053961;28;20042;-87
2023/07/06 07:59:04;;;;;;;;;;;;;;;;;;5054366;28;19921;-87
2023/07/06 08:01:30;;;;;;;;;;;;;;;;;;5054207;28;19921;-86
2023/07/06 08:03:57;;;;;;;;;;;;;;;;;;5054156;28;20407;-87
2023/07/06 08:06:23;;;;;;;;;;;;;;;;;;5053745;28;19975;-86
2023/07/06 08:08:48;;;;;;;;;;;;;;;;;;5037341;28;19968;-87
2023/07/06 08:11:14;;;;;;;;;;;;;;;;;;5055162;28;19991;-87
2023/07/06 08:13:40;;;;;;;;;;;;;;;;;;5053608;28;19921;-87
2023/07/06 08:16:06;;;;;;;;;;;;;;;;;;5053409;28;19932;-87
2023/07/06 08:18:32;;;;;;;;;;;;;;;;;;5037058;28;19921;-86
2023/07/06 08:20:58;;;;;;;;;;;;;;;;;;5053688;28;19921;-86
2023/07/06 08:23:24;;;;;;;;;;;;;;;;;;5054017;28;19924;-87
2023/07/06 08:25:53;;;;;;;;;;;;;;;;;;5053750;28;19925;-87
2023/07/06 08:28:20;;;;;;;;;;;;;;;;;;5054938;28;19965;-87
2023/07/06 08:30:46;;;;;;;;;;;;;;;;;;5053471;28;19925;-87
2023/07/06 08:33:11;;;;;;;;;;;;;;;;;;5053579;28;19927;-87
2023/07/06 08:35:38;;;;;;;;;;;;;;;;;;5037196;28;19943;-87
2023/07/06 08:38:04;;;;;;;;;;;;;;;;;;5037000;28;20280;-87
2023/07/06 08:40:30;;;;;;;;;;;;;;;;;;5053766;28;19964;-87
2023/07/06 08:42:56;;;;;;;;;;;;;;;;;;5052315;28;20061;-87
2023/07/06 08:45:22;;;;;;;;;;;;;;;;;;5054669;28;19925;-86
2023/07/06 08:47:48;;;;;;;;;;;;;;;;;;5054647;28;20368;-86
2023/07/06 08:50:20;;;;;;;;;;;;;;;;;;5053089;28;19968;-87
2023/07/06 08:52:46;;;;;;;;;;;;;;;;;;5036562;28;19931;-86
2023/07/06 08:55:13;;;;;;;;;;;;;;;;;;5052826;28;20003;-87
2023/07/06 08:57:39;;;;;;;;;;;;;;;;;;5054305;28;19921;-86
2023/07/06 09:00:05;;;;;;;;;;;;;;;;;;5053115;28;19920;-87
2023/07/06 09:02:31;;;;;;;;;;;;;;;;;;5054388;28;19936;-86
2023/07/06 09:04:59;;;;;;;;;;;;;;;;;;5052704;28;20018;-87
2023/07/06 09:07:25;;;;;;;;;;;;;;;;;;5036143;28;19921;-87
2023/07/06 09:09:54;;;;;;;;;;;;;;;;;;5054095;28;20046;-86
2023/07/06 09:12:20;;;;;;;;;;;;;;;;;;5052647;28;19921;-87
2023/07/06 09:14:46;;;;;;;;;;;;;;;;;;5054277;28;20379;-86
2023/07/06 09:17:13;;;;;;;;;;;;;;;;;;5053966;28;19921;-86
2023/07/06 09:19:39;;;;;;;;;;;;;;;;;;5053118;28;19943;-87
2023/07/06 09:22:05;;;;;;;;;;;;;;;;;;5053991;28;20372;-87
2023/07/06 09:24:31;;;;;;;;;;;;;;;;;;5053960;28;19928;-86
2023/07/06 09:26:58;;;;;;;;;;;;;;;;;;5052089;28;19924;-88
2023/07/06 09:29:25;;;;;;;;;;;;;;;;;;5052640;28;19921;-86
2023/07/06 09:31:51;;;;;;;;;;;;;;;;;;5052490;28;19921;-87
2023/07/06 09:34:17;;;;;;;;;;;;;;;;;;5053944;28;20395;-85
2023/07/06 09:36:42;;;;;;;;;;;;;;;;;;5053445;28;19921;-87
2023/07/06 09:39:09;;;;;;;;;;;;;;;;;;5053547;28;19928;-87
2023/07/06 09:41:37;;;;;;;;;;;;;;;;;;5053382;28;20368;-88
2023/07/06 09:44:03;;;;;;;;;;;;;;;;;;5035419;28;19920;-88
2023/07/06 09:46:29;;;;;;;;;;;;;;;;;;5035415;28;19933;-88
2023/07/06 09:48:55;;;;;;;;;;;;;;;;;;5053526;28;19920;-87
2023/07/06 09:51:21;;;;;;;;;;;;;;;;;;5052052;28;20273;-87
2023/07/06 09:53:50;;;;;;;;;;;;;;;;;;5052041;28;20040;-87
2023/07/06 09:56:16;;;;;;;;;;;;;;;;;;5053189;28;20012;-86
2023/07/06 09:58:45;;;;;;;;;;;;;;;;;;5053649;28;20324;-86
2023/07/06 10:01:13;;;;;;;;;;;;;;;;;;5053190;28;20364;-86
2023/07/06 10:03:39;;;;;;;;;;;;;;;;;;5051779;28;19928;-87
2023/07/06 10:06:05;;;;;;;;;;;;;;;;;;5051718;28;19925;-88
2023/07/06 10:08:30;;;;;;;;;;;;;;;;;;5053010;28;20062;-87
2023/07/06 10:10:58;;;;;;;;;;;;;;;;;;5053109;28;19982;-87
2023/07/06 10:13:24;;;;;;;;;;;;;;;;;;5034902;28;20333;-88
2023/07/06 10:15:51;;;;;;;;;;;;;;;;;;5034958;28;19921;-87
2023/07/06 10:18:17;;;;;;;;;;;;;;;;;;5052936;28;19927;-86
2023/07/06 10:20:42;;;;;;;;;;;;;;;;;;5051808;28;20003;-87
2023/07/06 10:23:09;;;;;;;;;;;;;;;;;;5034663;28;19924;-86
2023/07/06 10:25:35;;;;;;;;;;;;;;;;;;5034670;28;19925;-87
2023/07/06 10:28:03;;;;;;;;;;;;;;;;;;5051420;28;20008;-87
2023/07/06 10:30:31;;;;;;;;;;;;;;;;;;5051217;28;19927;-87
2023/07/06 10:32:57;;;;;;;;;;;;;;;;;;5051115;28;19920;-86
2023/07/06 10:35:23;;;;;;;;;;;;;;;;;;5051212;28;20027;-86
2023/07/06 10:37:49;;;;;;;;;;;;;;;;;;5051005;28;19948;-86
2023/07/06 10:40:15;;;;;;;;;;;;;;;;;;5050966;28;19928;-87
2023/07/06 10:42:41;;;;;;;;;;;;;;;;;;5051099;28;19921;-87
2023/07/06 10:45:07;;;;;;;;;;;;;;;;;;5034613;28;20573;-87
2023/07/06 10:47:33;;;;;;;;;;;;;;;;;;5051107;28;19921;-87
2023/07/06 10:49:59;;;;;;;;;;;;;;;;;;5052377;28;19921;-87
2023/07/06 10:52:25;;;;;;;;;;;;;;;;;;5034500;28;19943;-86
2023/07/06 10:54:51;;;;;;;;;;;;;;;;;;5050977;28;20007;-87
2023/07/06 10:57:17;;;;;;;;;;;;;;;;;;5052670;28;19966;-87
2023/07/06 10:59:44;;;;;;;;;;;;;;;;;;5034064;28;19936;-87
2023/07/06 11:02:10;;;;;;;;;;;;;;;;;;5050491;28;19921;-85
2023/07/06 11:04:35;;;;;;;;;;;;;;;;;;5051411;28;19925;-86
2023/07/06 11:07:01;;;;;;;;;;;;;;;;;;5051255;28;20273;-85
2023/07/06 11:09:29;;;;;;;;;;;;;;;;;;5051932;28;19927;-88
2023/07/06 11:11:55;;;;;;;;;;;;;;;;;;5050305;28;19921;-86
2023/07/06 11:14:22;;;;;;;;;;;;;;;;;;5050423;28;20142;-87
2023/07/06 11:16:48;;;;;;;;;;;;;;;;;;5051681;28;20264;-87
2023/07/06 11:19:14;;;;;;;;;;;;;;;;;;5050401;28;19921;-87
2023/07/06 11:21:40;;;;;;;;;;;;;;;;;;5050457;28;19987;-87
2023/07/06 11:24:08;;;;;;;;;;;;;;;;;;5050835;28;20343;-87
2023/07/06 11:26:35;;;;;;;;;;;;;;;;;;5033678;28;19951;-89
2023/07/06 11:29:01;;;;;;;;;;;;;;;;;;5051803;28;20011;-88
2023/07/06 11:31:26;;;;;;;;;;;;;;;;;;5050400;28;20016;-88
2023/07/06 11:33:52;;;;;;;;;;;;;;;;;;5050512;28;20028;-88
2023/07/06 11:36:19;;;;;;;;;;;;;;;;;;5050571;28;20019;-88
2023/07/06 11:38:45;;;;;;;;;;;;;;;;;;5033965;28;19924;-88
2023/07/06 11:41:11;;;;;;;;;;;;;;;;;;5050556;28;19931;-88
2023/07/06 11:43:37;;;;;;;;;;;;;;;;;;5050747;28;19929;-87
2023/07/06 11:46:05;;;;;;;;;;;;;;;;;;5050384;28;19932;-86
2023/07/06 11:48:31;;;;;;;;;;;;;;;;;;5050271;28;20444;-87
2023/07/06 11:50:57;;;;;;;;;;;;;;;;;;5050461;28;19932;-87
2023/07/06 11:53:31;;;;;;;;;;;;;;;;;;5033854;28;19921;-86
2023/07/06 11:56:05;;;;;;;;;;;;;;;;;;5033587;28;19925;-85
2023/07/06 11:58:53;;;;;;;;;;;;;;;;;;5051674;28;19921;-86
2023/07/06 12:02:04;;;;;;;;;;;;;;;;;;5026094;28;19968;-86
2023/07/06 12:04:09;;;;;;;;;;;;;;;;;;5047186;28;19948;-88
2023/07/06 12:06:34;;;;;;;;;;;;;;;;;;5050397;28;19925;-89
2023/07/06 12:09:01;;;;;;;;;;;;;;;;;;5050273;28;20241;-87
2023/07/06 12:11:27;;;;;;;;;;;;;;;;;;5050018;28;19921;-89
2023/07/06 12:13:53;;;;;;;;;;;;;;;;;;5051656;28;19927;-86
2023/07/06 12:16:19;;;;;;;;;;;;;;;;;;5033499;28;19921;-88
2023/07/06 12:18:45;;;;;;;;;;;;;;;;;;5053087;28;19940;-89
2023/07/06 12:21:10;;;;;;;;;;;;;;;;;;5054750;28;19920;-85
2023/07/06 12:23:36;;;;;;;;;;;;;;;;;;5053605;28;19920;-86
2023/07/06 12:26:06;;;;;;;;;;;;;;;;;;5053563;28;19925;-86
2023/07/06 12:28:31;;;;;;;;;;;;;;;;;;5054751;28;20423;-86
2023/07/06 12:30:58;;;;;;;;;;;;;;;;;;5053313;28;19972;-86
2023/07/06 12:33:24;;;;;;;;;;;;;;;;;;5053528;28;19994;-85
2023/07/06 12:35:51;;;;;;;;;;;;;;;;;;5053744;28;19920;-87
2023/07/06 12:38:19;;;;;;;;;;;;;;;;;;5037021;28;20384;-87
2023/07/06 12:40:46;;;;;;;;;;;;;;;;;;5052350;28;19928;-87
2023/07/06 12:43:12;;;;;;;;;;;;;;;;;;5036169;28;19920;-87
2023/07/06 12:45:39;;;;;;;;;;;;;;;;;;5054328;28;19931;-87
2023/07/06 12:48:05;;;;;;;;;;;;;;;;;;5054666;28;19921;-87
2023/07/06 12:50:31;;;;;;;;;;;;;;;;;;5053218;28;20359;-87
2023/07/06 12:52:56;;;;;;;;;;;;;;;;;;5052848;28;20317;-88
2023/07/06 12:55:23;;;;;;;;;;;;;;;;;;5052645;28;19925;-88
2023/07/06 12:57:49;;;;;;;;;;;;;;;;;;5053329;28;19943;-87
2023/07/06 13:00:15;;;;;;;;;;;;;;;;;;5036138;28;20311;-88
2023/07/06 13:02:42;;;;;;;;;;;;;;;;;;5053987;28;19921;-88
2023/07/06 13:05:08;;;;;;;;;;;;;;;;;;5052512;28;19977;-87
2023/07/06 13:07:34;;;;;;;;;;;;;;;;;;5052349;28;20007;-88
2023/07/06 13:10:00;;;;;;;;;;;;;;;;;;5052475;28;20009;-87
2023/07/06 13:12:26;;;;;;;;;;;;;;;;;;5052604;28;19925;-89
2023/07/06 13:14:52;;;;;;;;;;;;;;;;;;5036247;28;19921;-88
2023/07/06 13:17:22;;;;;;;;;;;;;;;;;;5052566;28;19975;-88
2023/07/06 13:19:48;;;;;;;;;;;;;;;;;;5052607;28;19928;-88
2023/07/06 13:22:14;;;;;;;;;;;;;;;;;;5052703;28;19921;-88
2023/07/06 13:24:40;;;;;;;;;;;;;;;;;;5036112;28;20384;-87
2023/07/06 13:27:06;;;;;;;;;;;;;;;;;;5035754;28;19933;-89
2023/07/06 13:29:35;;;;;;;;;;;;;;;;;;5052956;28;19921;-92
2023/07/06 13:32:03;;;;;;;;;;;;;;;;;;5053608;28;19921;-92
2023/07/06 13:34:31;;;;;;;;;;;;;;;;;;5036685;28;20299;-91
2023/07/06 13:36:57;;;;;;;;;;;;;;;;;;5035977;28;19967;-89
2023/07/06 13:39:23;;;;;;;;;;;;;;;;;;5035878;28;19920;-89
2023/07/06 13:41:50;;;;;;;;;;;;;;;;;;5052582;28;19921;-89
2023/07/06 13:44:16;;;;;;;;;;;;;;;;;;5052235;28;19970;-91
2023/07/06 13:46:47;;;;;;;;;;;;;;;;;;5052297;28;20388;-90
2023/07/06 13:49:14;;;;;;;;;;;;;;;;;;5052264;28;20166;-90
2023/07/06 13:51:40;;;;;;;;;;;;;;;;;;5052038;28;19944;-90
2023/07/06 13:54:06;;;;;;;;;;;;;;;;;;5052136;28;19964;-89
2023/07/06 13:56:33;;;;;;;;;;;;;;;;;;5052003;28;19998;-90
2023/07/06 13:58:58;;;;;;;;;;;;;;;;;;5035130;28;19942;-89
2023/07/06 14:01:25;;;;;;;;;;;;;;;;;;5053079;28;19946;-88
2023/07/06 14:03:53;;;;;;;;;;;;;;;;;;5035305;28;19968;-88
2023/07/06 14:06:19;;;;;;;;;;;;;;;;;;5051594;28;20008;-89
2023/07/06 14:08:45;;;;;;;;;;;;;;;;;;5051750;28;19967;-88
2023/07/06 14:11:11;;;;;;;;;;;;;;;;;;5051568;28;19921;-89
2023/07/06 14:13:37;;;;;;;;;;;;;;;;;;5052018;28;19921;-90
2023/07/06 14:16:04;;;;;;;;;;;;;;;;;;5051597;28;19921;-89
2023/07/06 14:18:30;;;;;;;;;;;;;;;;;;5034808;28;19921;-89
2023/07/06 14:20:56;;;;;;;;;;;;;;;;;;5051306;28;19928;-91
2023/07/06 14:23:22;;;;;;;;;;;;;;;;;;5051609;28;20023;-87
2023/07/06 14:25:48;;;;;;;;;;;;;;;;;;5051561;28;19925;-92
2023/07/06 14:28:16;;;;;;;;;;;;;;;;;;5034736;28;19970;-90
2023/07/06 14:30:43;;;;;;;;;;;;;;;;;;5051206;28;19920;-91
2023/07/06 14:33:09;;;;;;;;;;;;;;;;;;5034675;28;20247;-88
2023/07/06 14:35:35;;;;;;;;;;;;;;;;;;5051327;28;19978;-87
2023/07/06 14:38:00;;;;;;;;;;;;;;;;;;5050929;28;20380;-87
2023/07/06 14:40:26;;;;;;;;;;;;;;;;;;5050340;28;20012;-87
2023/07/06 14:42:53;;;;;;;;;;;;;;;;;;5034510;28;19927;-88
2023/07/06 14:45:20;;;;;;;;;;;;;;;;;;5034201;28;19986;-88
2023/07/06 14:47:46;;;;;;;;;;;;;;;;;;5034025;28;19924;-88
2023/07/06 14:50:12;;;;;;;;;;;;;;;;;;5050827;28;20288;-88
2023/07/06 14:52:38;;;;;;;;;;;;;;;;;;5051437;28;19921;-88
2023/07/06 14:55:04;;;;;;;;;;;;;;;;;;5033941;28;19924;-89
2023/07/06 14:57:30;;;;;;;;;;;;;;;;;;5050690;28;19928;-87
2023/07/06 14:59:56;;;;;;;;;;;;;;;;;;5050856;28;19931;-87
2023/07/06 15:02:26;;;;;;;;;;;;;;;;;;5050760;28;19925;-87
2023/07/06 15:04:51;;;;;;;;;;;;;;;;;;5034102;28;19964;-88
2023/07/06 15:07:17;;;;;;;;;;;;;;;;;;5051899;28;19975;-88
2023/07/06 15:09:43;;;;;;;;;;;;;;;;;;5050669;28;20289;-89
2023/07/06 15:12:09;;;;;;;;;;;;;;;;;;5050641;28;20347;-89
2023/07/06 15:14:35;;;;;;;;;;;;;;;;;;5043194;28;20389;-88
2023/07/06 15:17:02;;;;;;;;;;;;;;;;;;5032955;28;19921;-89
2023/07/06 15:19:28;;;;;;;;;;;;;;;;;;5031131;28;20004;-87
2023/07/06 15:21:53;;;;;;;;;;;;;;;;;;5014147;28;19971;-87
2023/07/06 15:24:19;;;;;;;;;;;;;;;;;;5030708;28;19928;-88
2023/07/06 15:26:45;;;;;;;;;;;;;;;;;;5030510;28;20010;-87
2023/07/06 15:29:11;;;;;;;;;;;;;;;;;;5030611;28;19928;-89
2023/07/06 15:31:37;;;;;;;;;;;;;;;;;;5036760;28;19921;-88
2023/07/06 15:34:03;;;;;;;;;;;;;;;;;;5050402;28;20047;-87
2023/07/06 15:36:29;;;;;;;;;;;;;;;;;;5033939;28;20465;-87
2023/07/06 15:38:55;;;;;;;;;;;;;;;;;;5052017;28;20003;-88
2023/07/06 15:41:21;;;;;;;;;;;;;;;;;;5052052;28;19981;-88
2023/07/06 15:43:47;;;;;;;;;;;;;;;;;;5034734;28;20348;-87
2023/07/06 15:46:13;;;;;;;;;;;;;;;;;;5050964;28;19972;-87
2023/07/06 15:48:39;;;;;;;;;;;;;;;;;;5051349;28;19921;-90
2023/07/06 15:51:05;;;;;;;;;;;;;;;;;;5054070;28;19928;-86
2023/07/06 15:53:36;;;;;;;;;;;;;;;;;;5056549;28;19920;-88
2023/07/06 15:56:02;;;;;;;;;;;;;;;;;;5037710;28;19925;-88
2023/07/06 15:58:29;;;;;;;;;;;;;;;;;;5037610;28;20435;-85
2023/07/06 16:00:55;;;;;;;;;;;;;;;;;;5054289;28;20011;-87
2023/07/06 16:03:20;;;;;;;;;;;;;;;;;;5055508;28;19960;-87
2023/07/06 16:05:46;;;;;;;;;;;;;;;;;;5055358;28;19925;-88
2023/07/06 16:08:12;;;;;;;;;;;;;;;;;;5053820;28;20023;-89
2023/07/06 16:10:38;;;;;;;;;;;;;;;;;;5037909;28;20023;-90
2023/07/06 16:13:04;;;;;;;;;;;;;;;;;;5055142;28;20372;-89
2023/07/06 16:15:30;;;;;;;;;;;;;;;;;;5054382;28;19921;-90
2023/07/06 16:17:56;;;;;;;;;;;;;;;;;;5054170;28;19925;-90
2023/07/06 16:20:22;;;;;;;;;;;;;;;;;;5053904;28;19921;-90
2023/07/06 16:22:48;;;;;;;;;;;;;;;;;;5054041;28;19920;-89
2023/07/06 16:25:14;;;;;;;;;;;;;;;;;;5055357;28;20375;-89
2023/07/06 16:27:39;;;;;;;;;;;;;;;;;;5037099;28;19921;-90
2023/07/06 16:30:05;;;;;;;;;;;;;;;;;;5037429;28;19931;-85
2023/07/06 16:32:31;;;;;;;;;;;;;;;;;;5054916;28;19921;-85
2023/07/06 16:34:57;;;;;;;;;;;;;;;;;;5053751;28;20281;-85
2023/07/06 16:37:23;;;;;;;;;;;;;;;;;;5053427;28;19928;-85
2023/07/06 16:39:49;;;;;;;;;;;;;;;;;;5053357;28;19921;-85